sensor_id;sensor_type;location;lat;lon;timestamp;pressure;altitude;pressure_sealevel;temperature;humidity
2711;BME280;20721;47.402;8.550;2022-11-02T00:00:11;96817;;;14.74;63.12
2711;BME280;20721;47.402;8.550;2022-11-02T00:01:25;96815;;;14.76;63.07
2711;BME280;20721;47.402;8.550;2022-11-02T00:02:09;96817;;;14.78;62.95
2711;BME280;20721;47.402;8.550;2022-11-02T00:03:09;96818;;;14.79;62.87
2711;BME280;20721;47.402;8.550;2022-11-02T00:05:11;96818;;;14.82;62.83
2711;BME280;20721;47.402;8.550;2022-11-02T00:06:09;96822;;;14.83;62.68
2711;BME280;20721;47.402;8.550;2022-11-02T00:07:09;96820;;;14.82;62.67
2711;BME280;20721;47.402;8.550;2022-11-02T00:09:09;96819;;;14.81;62.58
2711;BME280;20721;47.402;8.550;2022-11-02T00:11:09;96819;;;14.82;62.58
2711;BME280;20721;47.402;8.550;2022-11-02T00:12:09;96821;;;14.81;62.49
2711;BME280;20721;47.402;8.550;2022-11-02T00:13:09;96824;;;14.79;62.54
2711;BME280;20721;47.402;8.550;2022-11-02T00:14:09;96822;;;14.78;62.54
2711;BME280;20721;47.402;8.550;2022-11-02T00:15:09;96826;;;14.77;62.61
2711;BME280;20721;47.402;8.550;2022-11-02T00:16:12;96823;;;14.76;62.61
2711;BME280;20721;47.402;8.550;2022-11-02T00:17:09;96822;;;14.77;62.60
2711;BME280;20721;47.402;8.550;2022-11-02T00:18:09;96820;;;14.78;62.51
2711;BME280;20721;47.402;8.550;2022-11-02T00:19:09;96823;;;14.77;62.50
2711;BME280;20721;47.402;8.550;2022-11-02T00:20:09;96821;;;14.75;62.55
2711;BME280;20721;47.402;8.550;2022-11-02T00:22:09;96819;;;14.74;62.46
2711;BME280;20721;47.402;8.550;2022-11-02T00:23:11;96812;;;14.71;62.48
2711;BME280;20721;47.402;8.550;2022-11-02T00:24:09;96815;;;14.68;62.51
2711;BME280;20721;47.402;8.550;2022-11-02T00:25:11;96815;;;14.69;62.53
2711;BME280;20721;47.402;8.550;2022-11-02T00:26:09;96813;;;14.70;62.49
2711;BME280;20721;47.402;8.550;2022-11-02T00:27:10;96814;;;14.71;62.38
2711;BME280;20721;47.402;8.550;2022-11-02T00:28:09;96816;;;14.70;62.39
2711;BME280;20721;47.402;8.550;2022-11-02T00:29:09;96814;;;14.69;62.35
2711;BME280;20721;47.402;8.550;2022-11-02T00:31:09;96818;;;14.68;62.47
2711;BME280;20721;47.402;8.550;2022-11-02T00:32:09;96817;;;14.66;62.51
2711;BME280;20721;47.402;8.550;2022-11-02T00:34:09;96817;;;14.59;62.72
2711;BME280;20721;47.402;8.550;2022-11-02T00:35:09;96819;;;14.54;62.98
2711;BME280;20721;47.402;8.550;2022-11-02T00:36:09;96819;;;14.41;63.45
2711;BME280;20721;47.402;8.550;2022-11-02T00:37:09;96818;;;14.34;63.84
2711;BME280;20721;47.402;8.550;2022-11-02T00:38:09;96819;;;14.37;64.10
2711;BME280;20721;47.402;8.550;2022-11-02T00:39:09;96818;;;14.36;64.08
2711;BME280;20721;47.402;8.550;2022-11-02T00:40:09;96820;;;14.41;63.91
2711;BME280;20721;47.402;8.550;2022-11-02T00:41:09;96818;;;14.46;63.73
2711;BME280;20721;47.402;8.550;2022-11-02T00:42:10;96821;;;14.48;63.72
2711;BME280;20721;47.402;8.550;2022-11-02T00:43:09;96822;;;14.51;63.51
2711;BME280;20721;47.402;8.550;2022-11-02T00:44:09;96823;;;14.54;63.55
2711;BME280;20721;47.402;8.550;2022-11-02T00:45:09;96823;;;14.56;63.58
2711;BME280;20721;47.402;8.550;2022-11-02T00:46:09;96821;;;14.60;63.53
2711;BME280;20721;47.402;8.550;2022-11-02T00:47:10;96823;;;14.63;63.47
2711;BME280;20721;47.402;8.550;2022-11-02T00:48:09;96826;;;14.66;63.43
2711;BME280;20721;47.402;8.550;2022-11-02T00:49:09;96828;;;14.70;63.57
2711;BME280;20721;47.402;8.550;2022-11-02T00:50:09;96828;;;14.73;63.45
2711;BME280;20721;47.402;8.550;2022-11-02T00:51:09;96829;;;14.75;63.33
2711;BME280;20721;47.402;8.550;2022-11-02T00:52:09;96829;;;14.78;63.28
2711;BME280;20721;47.402;8.550;2022-11-02T00:53:11;96830;;;14.79;63.22
2711;BME280;20721;47.402;8.550;2022-11-02T00:54:09;96831;;;14.81;63.22
2711;BME280;20721;47.402;8.550;2022-11-02T00:55:10;96831;;;14.83;63.18
2711;BME280;20721;47.402;8.550;2022-11-02T00:56:09;96835;;;14.85;63.18
2711;BME280;20721;47.402;8.550;2022-11-02T00:57:09;96837;;;14.86;63.11
2711;BME280;20721;47.402;8.550;2022-11-02T00:58:09;96837;;;14.87;63.06
2711;BME280;20721;47.402;8.550;2022-11-02T00:59:09;96832;;;14.88;62.99
2711;BME280;20721;47.402;8.550;2022-11-02T01:02:09;96839;;;14.89;62.95
2711;BME280;20721;47.402;8.550;2022-11-02T01:06:10;96840;;;14.88;62.84
2711;BME280;20721;47.402;8.550;2022-11-02T01:07:09;96841;;;14.89;62.88
2711;BME280;20721;47.402;8.550;2022-11-02T01:08:09;96839;;;14.92;62.87
2711;BME280;20721;47.402;8.550;2022-11-02T01:09:09;96840;;;14.95;62.77
2711;BME280;20721;47.402;8.550;2022-11-02T01:10:09;96842;;;14.97;62.73
2711;BME280;20721;47.402;8.550;2022-11-02T01:12:09;96842;;;14.98;62.61
2711;BME280;20721;47.402;8.550;2022-11-02T01:13:09;96838;;;15.00;62.62
2711;BME280;20721;47.402;8.550;2022-11-02T01:14:09;96839;;;15.01;62.61
2711;BME280;20721;47.402;8.550;2022-11-02T01:16:09;96841;;;15.02;62.63
2711;BME280;20721;47.402;8.550;2022-11-02T01:17:09;96836;;;15.03;62.60
2711;BME280;20721;47.402;8.550;2022-11-02T01:21:09;96840;;;15.02;62.63
2711;BME280;20721;47.402;8.550;2022-11-02T01:22:09;96837;;;15.01;62.77
2711;BME280;20721;47.402;8.550;2022-11-02T01:24:09;96838;;;15.02;62.73
2711;BME280;20721;47.402;8.550;2022-11-02T01:25:09;96840;;;15.04;62.72
2711;BME280;20721;47.402;8.550;2022-11-02T01:26:09;96838;;;15.05;62.70
2711;BME280;20721;47.402;8.550;2022-11-02T01:27:09;96841;;;15.06;62.71
2711;BME280;20721;47.402;8.550;2022-11-02T01:28:09;96842;;;15.08;62.76
2711;BME280;20721;47.402;8.550;2022-11-02T01:29:09;96835;;;15.09;62.82
2711;BME280;20721;47.402;8.550;2022-11-02T01:30:11;96841;;;15.06;62.75
2711;BME280;20721;47.402;8.550;2022-11-02T01:31:09;96838;;;15.01;63.18
2711;BME280;20721;47.402;8.550;2022-11-02T01:32:09;96840;;;14.98;63.35
2711;BME280;20721;47.402;8.550;2022-11-02T01:33:09;96837;;;15.00;63.30
2711;BME280;20721;47.402;8.550;2022-11-02T01:34:09;96840;;;15.03;63.26
2711;BME280;20721;47.402;8.550;2022-11-02T01:35:09;96838;;;15.06;63.23
2711;BME280;20721;47.402;8.550;2022-11-02T01:36:09;96839;;;15.11;63.25
2711;BME280;20721;47.402;8.550;2022-11-02T01:37:09;96842;;;15.15;63.17
2711;BME280;20721;47.402;8.550;2022-11-02T01:38:09;96840;;;15.18;63.15
2711;BME280;20721;47.402;8.550;2022-11-02T01:39:09;96839;;;15.21;63.14
2711;BME280;20721;47.402;8.550;2022-11-02T01:40:09;96837;;;15.23;63.23
2711;BME280;20721;47.402;8.550;2022-11-02T01:41:10;96834;;;15.27;63.17
2711;BME280;20721;47.402;8.550;2022-11-02T01:42:17;96834;;;15.31;63.08
2711;BME280;20721;47.402;8.550;2022-11-02T01:43:25;96832;;;15.34;63.02
2711;BME280;20721;47.402;8.550;2022-11-02T01:45:09;96829;;;15.45;62.97
2711;BME280;20721;47.402;8.550;2022-11-02T01:47:12;96833;;;15.53;62.77
2711;BME280;20721;47.402;8.550;2022-11-02T01:48:09;96835;;;15.55;62.69
2711;BME280;20721;47.402;8.550;2022-11-02T01:52:10;96832;;;15.54;62.09
2711;BME280;20721;47.402;8.550;2022-11-02T01:53:09;96837;;;15.55;62.09
2711;BME280;20721;47.402;8.550;2022-11-02T01:56:09;96833;;;15.51;62.04
2711;BME280;20721;47.402;8.550;2022-11-02T01:57:09;96834;;;15.50;62.06
2711;BME280;20721;47.402;8.550;2022-11-02T01:58:09;96828;;;15.46;62.13
2711;BME280;20721;47.402;8.550;2022-11-02T01:59:10;96822;;;15.45;62.20
2711;BME280;20721;47.402;8.550;2022-11-02T02:00:10;96823;;;15.44;62.27
2711;BME280;20721;47.402;8.550;2022-11-02T02:01:09;96827;;;15.41;62.29
2711;BME280;20721;47.402;8.550;2022-11-02T02:02:12;96825;;;15.37;62.42
2711;BME280;20721;47.402;8.550;2022-11-02T02:03:10;96826;;;15.35;62.43
2711;BME280;20721;47.402;8.550;2022-11-02T02:04:10;96824;;;15.33;62.40
2711;BME280;20721;47.402;8.550;2022-11-02T02:05:09;96822;;;15.28;62.51
2711;BME280;20721;47.402;8.550;2022-11-02T02:06:10;96824;;;15.27;62.67
2711;BME280;20721;47.402;8.550;2022-11-02T02:09:09;96827;;;15.30;62.75
2711;BME280;20721;47.402;8.550;2022-11-02T02:10:09;96825;;;15.31;62.74
2711;BME280;20721;47.402;8.550;2022-11-02T02:12:10;96830;;;15.33;62.73
2711;BME280;20721;47.402;8.550;2022-11-02T02:13:09;96830;;;15.32;62.71
2711;BME280;20721;47.402;8.550;2022-11-02T02:14:12;96830;;;15.33;62.75
2711;BME280;20721;47.402;8.550;2022-11-02T02:17:14;96826;;;15.33;62.70
2711;BME280;20721;47.402;8.550;2022-11-02T02:18:12;96827;;;15.31;62.68
2711;BME280;20721;47.402;8.550;2022-11-02T02:27:11;96826;;;15.28;62.52
2711;BME280;20721;47.402;8.550;2022-11-02T02:29:10;96830;;;15.23;62.65
2711;BME280;20721;47.402;8.550;2022-11-02T02:30:09;96830;;;15.21;62.69
2711;BME280;20721;47.402;8.550;2022-11-02T02:31:13;96827;;;15.20;62.78
2711;BME280;20721;47.402;8.550;2022-11-02T02:32:12;96828;;;15.21;62.75
2711;BME280;20721;47.402;8.550;2022-11-02T02:35:14;96821;;;15.16;62.84
2711;BME280;20721;47.402;8.550;2022-11-02T02:37:12;96820;;;15.07;63.14
2711;BME280;20721;47.402;8.550;2022-11-02T02:38:10;96822;;;15.03;63.39
2711;BME280;20721;47.402;8.550;2022-11-02T02:42:11;96811;;;15.06;63.56
2711;BME280;20721;47.402;8.550;2022-11-02T02:43:14;96813;;;15.11;63.46
2711;BME280;20721;47.402;8.550;2022-11-02T02:44:14;96815;;;15.15;63.38
2711;BME280;20721;47.402;8.550;2022-11-02T02:45:15;96812;;;15.20;63.26
2711;BME280;20721;47.402;8.550;2022-11-02T02:47:10;96817;;;15.22;63.32
2711;BME280;20721;47.402;8.550;2022-11-02T02:48:10;96812;;;15.25;63.25
2711;BME280;20721;47.402;8.550;2022-11-02T02:49:10;96807;;;15.27;63.32
2711;BME280;20721;47.402;8.550;2022-11-02T02:50:13;96810;;;15.11;63.67
2711;BME280;20721;47.402;8.550;2022-11-02T02:51:11;96806;;;15.02;63.86
2711;BME280;20721;47.402;8.550;2022-11-02T02:52:09;96815;;;14.99;64.29
2711;BME280;20721;47.402;8.550;2022-11-02T02:53:09;96814;;;15.00;64.31
2711;BME280;20721;47.402;8.550;2022-11-02T02:54:11;96815;;;14.96;64.47
2711;BME280;20721;47.402;8.550;2022-11-02T02:55:12;96812;;;14.93;64.65
2711;BME280;20721;47.402;8.550;2022-11-02T02:56:09;96810;;;15.00;64.49
2711;BME280;20721;47.402;8.550;2022-11-02T02:57:10;96806;;;15.08;64.25
2711;BME280;20721;47.402;8.550;2022-11-02T02:58:11;96800;;;15.16;64.03
2711;BME280;20721;47.402;8.550;2022-11-02T02:59:13;96800;;;15.24;63.72
2711;BME280;20721;47.402;8.550;2022-11-02T03:00:11;96800;;;15.31;63.51
2711;BME280;20721;47.402;8.550;2022-11-02T03:01:10;96798;;;15.36;63.33
2711;BME280;20721;47.402;8.550;2022-11-02T03:02:15;96799;;;15.40;63.25
2711;BME280;20721;47.402;8.550;2022-11-02T03:04:11;96800;;;15.42;63.05
2711;BME280;20721;47.402;8.550;2022-11-02T03:05:27;96801;;;15.46;63.04
2711;BME280;20721;47.402;8.550;2022-11-02T03:06:18;96805;;;15.52;62.91
2711;BME280;20721;47.402;8.550;2022-11-02T03:07:10;96800;;;15.55;62.85
2711;BME280;20721;47.402;8.550;2022-11-02T03:08:10;96804;;;15.56;62.82
2711;BME280;20721;47.402;8.550;2022-11-02T03:11:11;96802;;;15.58;62.69
2711;BME280;20721;47.402;8.550;2022-11-02T03:12:31;96805;;;15.56;62.77
2711;BME280;20721;47.402;8.550;2022-11-02T03:17:14;96804;;;15.53;62.65
2711;BME280;20721;47.402;8.550;2022-11-02T03:18:13;96804;;;15.50;62.65
2711;BME280;20721;47.402;8.550;2022-11-02T03:22:11;96804;;;15.44;62.85
2711;BME280;20721;47.402;8.550;2022-11-02T03:23:11;96804;;;15.42;62.77
2711;BME280;20721;47.402;8.550;2022-11-02T03:25:12;96802;;;15.39;62.92
2711;BME280;20721;47.402;8.550;2022-11-02T03:26:11;96800;;;15.37;62.90
2711;BME280;20721;47.402;8.550;2022-11-02T03:29:12;96798;;;15.36;62.96
2711;BME280;20721;47.402;8.550;2022-11-02T03:30:12;96801;;;15.38;62.98
2711;BME280;20721;47.402;8.550;2022-11-02T03:31:12;96797;;;15.40;62.81
2711;BME280;20721;47.402;8.550;2022-11-02T03:32:11;96801;;;15.42;62.73
2711;BME280;20721;47.402;8.550;2022-11-02T03:35:14;96798;;;15.46;62.66
2711;BME280;20721;47.402;8.550;2022-11-02T03:36:11;96799;;;15.49;62.60
2711;BME280;20721;47.402;8.550;2022-11-02T03:37:26;96795;;;15.50;62.64
2711;BME280;20721;47.402;8.550;2022-11-02T03:38:11;96799;;;15.51;62.66
2711;BME280;20721;47.402;8.550;2022-11-02T03:39:10;96796;;;15.53;62.58
2711;BME280;20721;47.402;8.550;2022-11-02T03:41:10;96799;;;15.54;62.52
2711;BME280;20721;47.402;8.550;2022-11-02T03:46:09;96802;;;15.53;62.56
2711;BME280;20721;47.402;8.550;2022-11-02T03:47:10;96802;;;15.51;62.62
2711;BME280;20721;47.402;8.550;2022-11-02T03:48:10;96802;;;15.50;62.66
2711;BME280;20721;47.402;8.550;2022-11-02T03:49:11;96805;;;15.49;62.64
2711;BME280;20721;47.402;8.550;2022-11-02T03:50:09;96808;;;15.47;62.69
2711;BME280;20721;47.402;8.550;2022-11-02T03:51:10;96807;;;15.45;62.73
2711;BME280;20721;47.402;8.550;2022-11-02T03:52:11;96809;;;15.46;62.63
2711;BME280;20721;47.402;8.550;2022-11-02T03:53:11;96808;;;15.45;62.62
2711;BME280;20721;47.402;8.550;2022-11-02T03:55:11;96807;;;15.42;62.58
2711;BME280;20721;47.402;8.550;2022-11-02T03:56:12;96811;;;15.38;62.62
2711;BME280;20721;47.402;8.550;2022-11-02T03:57:11;96811;;;15.34;62.67
2711;BME280;20721;47.402;8.550;2022-11-02T03:58:12;96809;;;15.31;62.69
2711;BME280;20721;47.402;8.550;2022-11-02T03:59:09;96809;;;15.28;62.79
2711;BME280;20721;47.402;8.550;2022-11-02T04:00:11;96808;;;15.27;62.83
2711;BME280;20721;47.402;8.550;2022-11-02T04:02:10;96813;;;15.25;62.86
2711;BME280;20721;47.402;8.550;2022-11-02T04:04:10;96821;;;15.24;62.96
2711;BME280;20721;47.402;8.550;2022-11-02T04:05:09;96821;;;15.25;63.00
2711;BME280;20721;47.402;8.550;2022-11-02T04:07:09;96820;;;15.24;63.01
2711;BME280;20721;47.402;8.550;2022-11-02T04:08:21;96822;;;15.21;62.79
2711;BME280;20721;47.402;8.550;2022-11-02T04:09:09;96822;;;15.13;63.28
2711;BME280;20721;47.402;8.550;2022-11-02T04:11:19;96824;;;15.16;63.48
2711;BME280;20721;47.402;8.550;2022-11-02T04:12:19;96822;;;15.20;63.49
2711;BME280;20721;47.402;8.550;2022-11-02T04:13:19;96822;;;15.23;63.40
2711;BME280;20721;47.402;8.550;2022-11-02T04:14:19;96824;;;15.26;63.40
2711;BME280;20721;47.402;8.550;2022-11-02T04:15:09;96824;;;15.30;63.56
2711;BME280;20721;47.402;8.550;2022-11-02T04:16:09;96821;;;15.34;63.45
2711;BME280;20721;47.402;8.550;2022-11-02T04:17:19;96821;;;15.38;63.52
2711;BME280;20721;47.402;8.550;2022-11-02T04:18:19;96823;;;15.42;63.46
2711;BME280;20721;47.402;8.550;2022-11-02T04:19:19;96818;;;15.34;63.96
2711;BME280;20721;47.402;8.550;2022-11-02T04:20:10;96822;;;15.29;64.12
2711;BME280;20721;47.402;8.550;2022-11-02T04:22:19;96820;;;15.33;64.22
2711;BME280;20721;47.402;8.550;2022-11-02T04:23:19;96823;;;15.38;64.15
2711;BME280;20721;47.402;8.550;2022-11-02T04:24:19;96822;;;15.43;64.12
2711;BME280;20721;47.402;8.550;2022-11-02T04:25:19;96824;;;15.48;64.06
2711;BME280;20721;47.402;8.550;2022-11-02T04:26:09;96827;;;15.51;63.91
2711;BME280;20721;47.402;8.550;2022-11-02T04:27:09;96824;;;15.54;63.97
2711;BME280;20721;47.402;8.550;2022-11-02T04:28:10;96827;;;15.57;63.87
2711;BME280;20721;47.402;8.550;2022-11-02T04:29:09;96826;;;15.62;63.78
2711;BME280;20721;47.402;8.550;2022-11-02T04:30:16;96823;;;15.64;63.75
2711;BME280;20721;47.402;8.550;2022-11-02T04:31:11;96823;;;15.68;63.61
2711;BME280;20721;47.402;8.550;2022-11-02T04:32:09;96820;;;15.73;63.49
2711;BME280;20721;47.402;8.550;2022-11-02T04:33:19;96824;;;15.77;63.43
2711;BME280;20721;47.402;8.550;2022-11-02T04:34:10;96823;;;15.73;63.23
2711;BME280;20721;47.402;8.550;2022-11-02T04:35:13;96824;;;15.71;63.38
2711;BME280;20721;47.402;8.550;2022-11-02T04:37:19;96829;;;15.70;63.32
2711;BME280;20721;47.402;8.550;2022-11-02T04:39:11;96832;;;15.72;63.36
2711;BME280;20721;47.402;8.550;2022-11-02T04:40:10;96832;;;15.73;63.30
2711;BME280;20721;47.402;8.550;2022-11-02T04:41:23;96838;;;15.76;63.24
2711;BME280;20721;47.402;8.550;2022-11-02T04:42:11;96843;;;15.80;63.09
2711;BME280;20721;47.402;8.550;2022-11-02T04:43:10;96845;;;15.81;63.02
2711;BME280;20721;47.402;8.550;2022-11-02T04:45:10;96848;;;15.80;62.85
2711;BME280;20721;47.402;8.550;2022-11-02T04:46:09;96851;;;15.78;62.99
2711;BME280;20721;47.402;8.550;2022-11-02T04:47:09;96850;;;15.79;62.99
2711;BME280;20721;47.402;8.550;2022-11-02T04:48:10;96852;;;15.80;62.99
2711;BME280;20721;47.402;8.550;2022-11-02T04:50:10;96852;;;15.78;62.75
2711;BME280;20721;47.402;8.550;2022-11-02T04:52:10;96851;;;15.77;62.63
2711;BME280;20721;47.402;8.550;2022-11-02T04:53:10;96854;;;15.75;62.61
2711;BME280;20721;47.402;8.550;2022-11-02T04:54:09;96857;;;15.72;62.58
2711;BME280;20721;47.402;8.550;2022-11-02T04:55:10;96856;;;15.68;62.65
2711;BME280;20721;47.402;8.550;2022-11-02T04:56:10;96855;;;15.65;62.60
2711;BME280;20721;47.402;8.550;2022-11-02T04:57:09;96852;;;15.59;62.89
2711;BME280;20721;47.402;8.550;2022-11-02T04:58:10;96857;;;15.54;63.03
2711;BME280;20721;47.402;8.550;2022-11-02T04:59:10;96858;;;15.52;63.13
2711;BME280;20721;47.402;8.550;2022-11-02T05:00:10;96857;;;15.51;63.18
2711;BME280;20721;47.402;8.550;2022-11-02T05:01:11;96858;;;15.49;63.35
2711;BME280;20721;47.402;8.550;2022-11-02T05:02:10;96854;;;15.47;63.40
2711;BME280;20721;47.402;8.550;2022-11-02T05:04:10;96853;;;15.46;63.55
2711;BME280;20721;47.402;8.550;2022-11-02T05:05:11;96855;;;15.45;63.65
2711;BME280;20721;47.402;8.550;2022-11-02T05:06:10;96858;;;15.44;63.66
2711;BME280;20721;47.402;8.550;2022-11-02T05:08:10;96863;;;15.43;63.63
2711;BME280;20721;47.402;8.550;2022-11-02T05:09:10;96861;;;15.42;63.70
2711;BME280;20721;47.402;8.550;2022-11-02T05:10:10;96859;;;15.41;63.64
2711;BME280;20721;47.402;8.550;2022-11-02T05:11:10;96859;;;15.39;63.74
2711;BME280;20721;47.402;8.550;2022-11-02T05:13:10;96853;;;15.37;63.77
2711;BME280;20721;47.402;8.550;2022-11-02T05:14:10;96855;;;15.36;63.71
2711;BME280;20721;47.402;8.550;2022-11-02T05:15:10;96850;;;15.35;63.79
2711;BME280;20721;47.402;8.550;2022-11-02T05:16:11;96847;;;15.33;63.91
2711;BME280;20721;47.402;8.550;2022-11-02T05:17:12;96849;;;15.32;63.91
2711;BME280;20721;47.402;8.550;2022-11-02T05:18:16;96850;;;15.31;63.83
2711;BME280;20721;47.402;8.550;2022-11-02T05:19:11;96853;;;15.29;63.79
2711;BME280;20721;47.402;8.550;2022-11-02T05:20:10;96861;;;15.28;63.99
2711;BME280;20721;47.402;8.550;2022-11-02T05:21:10;96860;;;15.26;64.23
2711;BME280;20721;47.402;8.550;2022-11-02T05:22:10;96862;;;15.29;64.35
2711;BME280;20721;47.402;8.550;2022-11-02T05:23:10;96865;;;15.32;64.33
2711;BME280;20721;47.402;8.550;2022-11-02T05:24:10;96867;;;15.34;64.41
2711;BME280;20721;47.402;8.550;2022-11-02T05:27:10;96872;;;15.33;64.35
2711;BME280;20721;47.402;8.550;2022-11-02T05:29:10;96873;;;15.34;64.44
2711;BME280;20721;47.402;8.550;2022-11-02T05:32:10;96880;;;15.35;64.43
2711;BME280;20721;47.402;8.550;2022-11-02T05:33:10;96878;;;15.36;64.52
2711;BME280;20721;47.402;8.550;2022-11-02T05:34:10;96877;;;15.37;64.48
2711;BME280;20721;47.402;8.550;2022-11-02T05:35:10;96875;;;15.36;64.25
2711;BME280;20721;47.402;8.550;2022-11-02T05:36:10;96872;;;15.34;63.93
2711;BME280;20721;47.402;8.550;2022-11-02T05:37:10;96873;;;15.28;64.28
2711;BME280;20721;47.402;8.550;2022-11-02T05:38:10;96874;;;15.17;64.58
2711;BME280;20721;47.402;8.550;2022-11-02T05:39:10;96874;;;15.12;64.70
2711;BME280;20721;47.402;8.550;2022-11-02T05:40:10;96878;;;15.09;64.68
2711;BME280;20721;47.402;8.550;2022-11-02T05:41:10;96875;;;15.11;64.78
2711;BME280;20721;47.402;8.550;2022-11-02T05:42:10;96876;;;15.08;64.82
2711;BME280;20721;47.402;8.550;2022-11-02T05:43:10;96873;;;15.07;64.75
2711;BME280;20721;47.402;8.550;2022-11-02T05:44:10;96875;;;15.08;64.78
2711;BME280;20721;47.402;8.550;2022-11-02T05:45:10;96876;;;15.07;64.56
2711;BME280;20721;47.402;8.550;2022-11-02T05:46:10;96876;;;15.02;64.97
2711;BME280;20721;47.402;8.550;2022-11-02T05:47:10;96877;;;15.03;65.00
2711;BME280;20721;47.402;8.550;2022-11-02T05:48:10;96875;;;15.07;64.90
2711;BME280;20721;47.402;8.550;2022-11-02T05:49:13;96875;;;15.11;64.78
2711;BME280;20721;47.402;8.550;2022-11-02T05:50:10;96880;;;15.15;64.85
2711;BME280;20721;47.402;8.550;2022-11-02T05:51:10;96879;;;15.18;64.81
2711;BME280;20721;47.402;8.550;2022-11-02T05:52:10;96880;;;15.20;64.87
2711;BME280;20721;47.402;8.550;2022-11-02T05:53:10;96883;;;15.21;64.86
2711;BME280;20721;47.402;8.550;2022-11-02T05:54:10;96884;;;15.23;64.85
2711;BME280;20721;47.402;8.550;2022-11-02T05:55:10;96888;;;15.24;64.82
2711;BME280;20721;47.402;8.550;2022-11-02T05:56:10;96886;;;15.25;64.73
2711;BME280;20721;47.402;8.550;2022-11-02T05:57:10;96889;;;15.26;64.80
2711;BME280;20721;47.402;8.550;2022-11-02T05:58:10;96887;;;15.27;64.82
2711;BME280;20721;47.402;8.550;2022-11-02T05:59:10;96888;;;15.29;64.87
2711;BME280;20721;47.402;8.550;2022-11-02T06:00:11;96888;;;15.30;64.92
2711;BME280;20721;47.402;8.550;2022-11-02T06:01:10;96891;;;15.32;64.79
2711;BME280;20721;47.402;8.550;2022-11-02T06:02:10;96891;;;15.33;64.67
2711;BME280;20721;47.402;8.550;2022-11-02T06:03:10;96894;;;15.34;64.80
2711;BME280;20721;47.402;8.550;2022-11-02T06:04:10;96892;;;15.36;64.78
2711;BME280;20721;47.402;8.550;2022-11-02T06:05:10;96896;;;15.38;64.74
2711;BME280;20721;47.402;8.550;2022-11-02T06:06:11;96892;;;15.37;64.75
2711;BME280;20721;47.402;8.550;2022-11-02T06:08:10;96894;;;15.38;64.70
2711;BME280;20721;47.402;8.550;2022-11-02T06:09:10;96895;;;15.39;64.59
2711;BME280;20721;47.402;8.550;2022-11-02T06:10:10;96893;;;15.37;64.59
2711;BME280;20721;47.402;8.550;2022-11-02T06:12:10;96900;;;15.38;64.76
2711;BME280;20721;47.402;8.550;2022-11-02T06:13:10;96899;;;15.40;64.78
2711;BME280;20721;47.402;8.550;2022-11-02T06:14:10;96900;;;15.41;64.89
2711;BME280;20721;47.402;8.550;2022-11-02T06:15:10;96903;;;15.44;64.97
2711;BME280;20721;47.402;8.550;2022-11-02T06:16:10;96904;;;15.46;64.91
2711;BME280;20721;47.402;8.550;2022-11-02T06:17:10;96907;;;15.49;64.95
2711;BME280;20721;47.402;8.550;2022-11-02T06:18:10;96911;;;15.51;64.94
2711;BME280;20721;47.402;8.550;2022-11-02T06:19:10;96910;;;15.54;64.97
2711;BME280;20721;47.402;8.550;2022-11-02T06:20:10;96909;;;15.58;64.91
2711;BME280;20721;47.402;8.550;2022-11-02T06:21:10;96913;;;15.60;64.92
2711;BME280;20721;47.402;8.550;2022-11-02T06:22:10;96914;;;15.61;64.88
2711;BME280;20721;47.402;8.550;2022-11-02T06:23:13;96915;;;15.62;64.95
2711;BME280;20721;47.402;8.550;2022-11-02T06:24:10;96915;;;15.63;64.95
2711;BME280;20721;47.402;8.550;2022-11-02T06:25:10;96918;;;15.64;64.93
2711;BME280;20721;47.402;8.550;2022-11-02T06:26:13;96921;;;15.65;64.90
2711;BME280;20721;47.402;8.550;2022-11-02T06:27:10;96924;;;15.68;64.89
2711;BME280;20721;47.402;8.550;2022-11-02T06:28:10;96925;;;15.69;64.71
2711;BME280;20721;47.402;8.550;2022-11-02T06:29:10;96924;;;15.71;64.63
2711;BME280;20721;47.402;8.550;2022-11-02T06:31:10;96931;;;15.72;64.53
2711;BME280;20721;47.402;8.550;2022-11-02T06:32:10;96932;;;15.71;64.54
2711;BME280;20721;47.402;8.550;2022-11-02T06:33:11;96929;;;15.70;64.64
2711;BME280;20721;47.402;8.550;2022-11-02T06:36:10;96931;;;15.72;64.35
2711;BME280;20721;47.402;8.550;2022-11-02T06:37:10;96933;;;15.73;64.37
2711;BME280;20721;47.402;8.550;2022-11-02T06:38:10;96929;;;15.75;64.19
2711;BME280;20721;47.402;8.550;2022-11-02T06:39:10;96933;;;15.77;64.08
2711;BME280;20721;47.402;8.550;2022-11-02T06:40:10;96932;;;15.78;64.09
2711;BME280;20721;47.402;8.550;2022-11-02T06:41:10;96936;;;15.77;64.10
2711;BME280;20721;47.402;8.550;2022-11-02T06:42:10;96941;;;15.76;64.11
2711;BME280;20721;47.402;8.550;2022-11-02T06:43:17;96941;;;15.75;64.21
2711;BME280;20721;47.402;8.550;2022-11-02T06:44:10;96944;;;15.73;64.31
2711;BME280;20721;47.402;8.550;2022-11-02T06:45:10;96942;;;15.75;64.39
2711;BME280;20721;47.402;8.550;2022-11-02T06:46:10;96943;;;15.78;64.43
2711;BME280;20721;47.402;8.550;2022-11-02T06:47:10;96945;;;15.82;64.32
2711;BME280;20721;47.402;8.550;2022-11-02T06:48:10;96945;;;15.84;64.25
2711;BME280;20721;47.402;8.550;2022-11-02T06:49:10;96943;;;15.88;64.12
2711;BME280;20721;47.402;8.550;2022-11-02T06:50:10;96946;;;15.89;64.10
2711;BME280;20721;47.402;8.550;2022-11-02T06:51:10;96951;;;15.90;64.12
2711;BME280;20721;47.402;8.550;2022-11-02T06:52:10;96949;;;15.92;63.97
2711;BME280;20721;47.402;8.550;2022-11-02T06:53:10;96951;;;15.93;63.91
2711;BME280;20721;47.402;8.550;2022-11-02T06:55:11;96958;;;15.94;64.17
2711;BME280;20721;47.402;8.550;2022-11-02T06:56:11;96955;;;15.95;64.16
2711;BME280;20721;47.402;8.550;2022-11-02T06:57:10;96956;;;15.94;64.12
2711;BME280;20721;47.402;8.550;2022-11-02T06:58:10;96956;;;15.93;64.08
2711;BME280;20721;47.402;8.550;2022-11-02T06:59:10;96956;;;15.95;64.08
2711;BME280;20721;47.402;8.550;2022-11-02T07:00:12;96962;;;15.96;64.10
2711;BME280;20721;47.402;8.550;2022-11-02T07:05:10;96965;;;15.94;64.20
2711;BME280;20721;47.402;8.550;2022-11-02T07:06:18;96970;;;15.93;64.17
2711;BME280;20721;47.402;8.550;2022-11-02T07:07:10;96973;;;15.90;64.01
2711;BME280;20721;47.402;8.550;2022-11-02T07:09:10;96975;;;15.91;64.07
2711;BME280;20721;47.402;8.550;2022-11-02T07:11:12;96979;;;15.93;63.91